createdAt,value
2018-09-28T00:00:32.015Z,13.10
2018-09-28T00:03:00.735Z,11.13
2018-09-28T00:05:29.409Z,16.67
2018-09-28T00:07:58.167Z,15.87
2018-09-28T00:10:27.216Z,13.30
2018-09-28T00:12:56.436Z,13.07
2018-09-28T00:15:25.132Z,11.67
2018-09-28T00:17:54.034Z,13.83
2018-09-28T00:20:22.953Z,15.00
2018-09-28T00:22:52.030Z,12.37
2018-09-28T00:25:20.740Z,13.93
2018-09-28T00:27:49.492Z,16.07
2018-09-28T00:30:18.189Z,15.23
2018-09-28T00:32:46.871Z,14.73
2018-09-28T00:35:15.670Z,12.60
2018-09-28T00:37:44.359Z,14.20
2018-09-28T00:40:12.992Z,13.37
2018-09-28T00:42:41.374Z,12.57
2018-09-28T00:45:09.833Z,12.50
2018-09-28T00:47:38.489Z,12.43
2018-09-28T00:50:07.103Z,13.60
2018-09-28T00:52:35.800Z,12.83
2018-09-28T00:55:04.724Z,12.53
2018-09-28T00:57:33.528Z,11.53
2018-09-28T01:00:02.560Z,13.17
2018-09-28T01:02:31.514Z,12.23
2018-09-28T01:05:00.228Z,13.00
2018-09-28T01:07:29.080Z,16.23
2018-09-28T01:09:57.950Z,12.27
2018-09-28T01:12:26.701Z,11.93
2018-09-28T01:14:55.539Z,13.27
2018-09-28T01:17:24.664Z,11.90
2018-09-28T01:19:53.644Z,12.60
2018-09-28T01:22:22.741Z,12.93
2018-09-28T01:24:51.839Z,11.40
2018-09-28T01:27:20.854Z,13.20
2018-09-28T01:29:49.924Z,13.67
2018-09-28T01:32:18.562Z,13.23
2018-09-28T01:34:47.420Z,17.20
2018-09-28T01:37:16.402Z,16.48
2018-09-28T01:39:45.269Z,13.93
2018-09-28T01:42:14.048Z,12.07
2018-09-28T01:44:42.773Z,14.00
2018-09-28T01:47:11.304Z,13.30
2018-09-28T01:49:40.095Z,12.17
2018-09-28T01:52:09.405Z,13.90
2018-09-28T01:54:38.230Z,14.10
2018-09-28T01:57:07.143Z,13.37
2018-09-28T01:59:35.809Z,15.43
2018-09-28T02:02:04.857Z,12.70
2018-09-28T02:04:33.509Z,12.10
2018-09-28T02:07:02.164Z,11.90
2018-09-28T02:09:30.918Z,13.03
2018-09-28T02:11:59.796Z,12.20
2018-09-28T02:14:28.763Z,11.67
2018-09-28T02:16:57.655Z,13.95
2018-09-28T02:19:26.576Z,11.80
2018-09-28T02:21:55.191Z,11.15
2018-09-28T02:24:23.902Z,12.47
2018-09-28T02:26:52.596Z,11.93
2018-09-28T02:29:21.345Z,13.57
2018-09-28T02:31:50.273Z,14.00
2018-09-28T02:34:19.106Z,14.90
2018-09-28T02:36:47.606Z,13.00
2018-09-28T02:39:16.030Z,14.90
2018-09-28T02:41:44.544Z,14.00
2018-09-28T02:44:13.081Z,14.18
2018-09-28T02:46:41.749Z,17.50
2018-09-28T02:49:10.242Z,14.37
2018-09-28T02:51:39.121Z,12.30
2018-09-28T02:54:07.810Z,13.20
2018-09-28T02:56:36.688Z,14.00
2018-09-28T02:59:05.780Z,11.50
2018-09-28T03:01:34.587Z,13.57
2018-09-28T03:04:03.327Z,12.47
2018-09-28T03:06:33.915Z,12.28
2018-09-28T03:09:02.866Z,12.17
2018-09-28T03:11:31.623Z,11.77
2018-09-28T03:14:00.368Z,18.17
2018-09-28T03:16:29.211Z,11.90
2018-09-28T03:18:57.750Z,14.13
2018-09-28T03:21:26.842Z,13.30
2018-09-28T03:23:55.828Z,14.60
2018-09-28T03:26:24.755Z,12.23
2018-09-28T03:28:53.580Z,13.13
2018-09-28T03:31:22.629Z,12.13
2018-09-28T03:33:51.403Z,11.67
2018-09-28T03:36:20.164Z,11.40
2018-09-28T03:38:48.735Z,12.77
2018-09-28T03:41:17.478Z,11.63
2018-09-28T03:43:45.918Z,12.03
2018-09-28T03:46:14.748Z,14.07
2018-09-28T03:48:43.330Z,12.30
2018-09-28T03:51:12.265Z,13.57
2018-09-28T03:53:41.155Z,14.13
2018-09-28T03:56:09.795Z,12.63
2018-09-28T03:58:38.694Z,14.87
2018-09-28T04:01:07.636Z,12.57
2018-09-28T04:03:36.414Z,12.77
2018-09-28T04:06:05.011Z,13.80
2018-09-28T04:08:33.865Z,14.07
2018-09-28T04:11:02.772Z,14.87
2018-09-28T04:13:31.639Z,13.57
2018-09-28T04:16:00.226Z,14.53
2018-09-28T04:18:29.000Z,13.20
2018-09-28T04:20:58.041Z,14.80
2018-09-28T04:23:27.080Z,17.53
2018-09-28T04:25:55.908Z,14.20
2018-09-28T04:28:24.940Z,12.67
2018-09-28T04:30:53.725Z,16.70
2018-09-28T04:33:22.745Z,12.60
2018-09-28T04:35:51.630Z,13.50
2018-09-28T04:38:20.227Z,14.00
2018-09-28T04:40:49.008Z,12.83
2018-09-28T04:43:17.653Z,15.63
2018-09-28T04:45:46.201Z,17.67
2018-09-28T04:48:15.257Z,20.40
2018-09-28T04:50:44.073Z,14.85
2018-09-28T04:53:13.006Z,16.13
2018-09-28T04:55:41.752Z,17.53
2018-09-28T04:58:10.739Z,14.03
2018-09-28T05:00:39.362Z,13.20
2018-09-28T05:03:09.026Z,14.77
2018-09-28T05:05:37.985Z,12.73
2018-09-28T05:08:06.753Z,14.87
2018-09-28T05:10:37.365Z,14.23
2018-09-28T05:13:06.368Z,15.37
2018-09-28T05:15:35.205Z,17.20
2018-09-28T05:18:04.078Z,16.40
2018-09-28T05:20:33.011Z,13.10
2018-09-28T05:23:01.670Z,13.50
2018-09-28T05:25:30.439Z,18.30
2018-09-28T05:27:59.455Z,16.53
2018-09-28T05:30:28.264Z,13.60
2018-09-28T05:32:57.319Z,17.03
2018-09-28T05:35:25.933Z,17.42
2018-09-28T05:37:54.783Z,13.80
2018-09-28T05:40:23.817Z,17.73
2018-09-28T05:42:52.988Z,14.28
2018-09-28T05:45:21.920Z,16.10
2018-09-28T05:47:50.584Z,16.60
2018-09-28T05:50:19.253Z,13.77
2018-09-28T05:52:47.808Z,22.53
2018-09-28T05:55:16.664Z,16.77
2018-09-28T05:57:45.268Z,13.43
2018-09-28T06:00:19.122Z,13.57
2018-09-28T06:02:52.955Z,17.40
2018-09-28T06:05:27.060Z,16.73
2018-09-28T06:07:55.566Z,22.47
2018-09-28T06:10:24.498Z,14.77
2018-09-28T06:12:53.384Z,18.57
2018-09-28T06:15:22.181Z,17.47
2018-09-28T06:17:50.635Z,17.87
2018-09-28T06:20:19.232Z,17.05
2018-09-28T06:22:47.748Z,26.97
2018-09-28T06:25:16.374Z,18.13
2018-09-28T06:27:44.980Z,25.57
2018-09-28T06:30:13.543Z,21.87
2018-09-28T06:32:42.192Z,24.60
2018-09-28T06:35:11.360Z,21.00
2018-09-28T06:37:40.175Z,30.20
2018-09-28T06:40:09.678Z,20.63
2018-09-28T06:42:38.897Z,25.33
2018-09-28T06:45:07.789Z,16.63
2018-09-28T06:47:36.886Z,20.23
2018-09-28T06:50:05.873Z,19.13
2018-09-28T06:52:35.118Z,18.32
2018-09-28T06:55:04.542Z,17.17
2018-09-28T06:57:33.889Z,17.53
2018-09-28T07:00:02.999Z,25.50
2018-09-28T07:02:31.645Z,24.03
2018-09-28T07:05:00.429Z,22.00
2018-09-28T07:07:29.237Z,33.07
2018-09-28T07:09:58.001Z,30.57
2018-09-28T07:12:26.724Z,22.07
2018-09-28T07:14:55.412Z,24.47
2018-09-28T07:17:24.729Z,22.53
2018-09-28T07:19:53.699Z,28.23
2018-09-28T07:22:22.196Z,33.23
2018-09-28T07:24:50.924Z,31.27
2018-09-28T07:27:19.727Z,41.90
2018-09-28T07:29:48.421Z,32.50
2018-09-28T07:32:17.082Z,34.40
2018-09-28T07:34:45.702Z,41.03
2018-09-28T07:37:15.101Z,41.87
2018-09-28T07:39:43.744Z,40.60
2018-09-28T07:42:12.604Z,35.00
2018-09-28T07:44:41.705Z,33.30
2018-09-28T07:47:10.326Z,53.70
2018-09-28T07:49:39.809Z,32.33
2018-09-28T07:52:08.972Z,30.80
2018-09-28T07:54:37.961Z,28.63
2018-09-28T07:57:06.827Z,37.23
2018-09-28T07:59:35.477Z,27.17
2018-09-28T08:02:04.238Z,36.97
2018-09-28T08:04:32.749Z,26.33
2018-09-28T08:07:01.388Z,27.90
2018-09-28T08:09:30.082Z,26.80
2018-09-28T08:11:58.760Z,22.22
2018-09-28T08:14:27.477Z,28.13
2018-09-28T08:16:55.961Z,45.30
2018-09-28T08:19:24.738Z,29.33
2018-09-28T08:21:53.566Z,17.35
2018-09-28T08:24:22.131Z,19.00
2018-09-28T08:26:50.852Z,19.27
2018-09-28T08:29:19.977Z,14.70
2018-09-28T08:31:49.151Z,16.20
2018-09-28T08:34:18.072Z,15.43
2018-09-28T08:36:46.762Z,16.35
2018-09-28T08:39:15.767Z,18.93
2018-09-28T08:41:44.696Z,18.10
2018-09-28T08:44:13.643Z,16.35
2018-09-28T08:46:42.592Z,16.80
2018-09-28T08:49:11.321Z,15.67
2018-09-28T08:51:40.607Z,16.53
2018-09-28T08:54:09.236Z,17.17
2018-09-28T08:56:39.424Z,15.77
2018-09-28T08:59:08.260Z,17.40
2018-09-28T09:01:37.124Z,13.37
2018-09-28T09:04:05.846Z,12.57
2018-09-28T09:06:35.292Z,12.55
2018-09-28T09:09:05.025Z,22.57
2018-09-28T09:11:33.561Z,22.00
2018-09-28T09:14:02.158Z,32.40
2018-09-28T09:16:30.691Z,17.93
2018-09-28T09:18:59.464Z,12.18
2018-09-28T09:21:28.385Z,12.10
2018-09-28T09:23:57.443Z,12.13
2018-09-28T09:26:26.609Z,10.87
2018-09-28T09:28:55.730Z,13.58
2018-09-28T09:31:24.628Z,11.70
2018-09-28T09:33:53.362Z,10.80
2018-09-28T09:36:22.109Z,15.03
2018-09-28T09:38:51.639Z,14.43
2018-09-28T09:41:20.664Z,11.30
2018-09-28T09:43:49.922Z,13.33
2018-09-28T09:46:18.629Z,11.60
2018-09-28T09:48:48.807Z,15.00
2018-09-28T09:51:17.886Z,12.68
2018-09-28T09:53:46.717Z,11.10
2018-09-28T09:56:15.953Z,12.33
2018-09-28T09:58:44.939Z,13.60
2018-09-28T10:01:20.356Z,11.27
2018-09-28T10:03:51.070Z,17.67
2018-09-28T10:06:20.220Z,13.40
2018-09-28T10:08:48.924Z,14.17
2018-09-28T10:11:18.755Z,13.57
2018-09-28T10:13:47.441Z,13.60
2018-09-28T10:16:16.329Z,14.00
2018-09-28T10:18:45.480Z,11.13
2018-09-28T10:21:14.948Z,12.50
2018-09-28T10:23:44.067Z,11.30
2018-09-28T10:26:13.517Z,12.97
2018-09-28T10:28:43.369Z,10.43
2018-09-28T10:31:12.578Z,14.33
2018-09-28T10:33:43.250Z,11.03
2018-09-28T10:36:12.165Z,11.67
2018-09-28T10:38:41.916Z,11.27
2018-09-28T10:41:11.904Z,12.03
2018-09-28T10:43:40.877Z,10.70
2018-09-28T10:46:10.617Z,10.20
2018-09-28T10:48:40.426Z,14.17
2018-09-28T10:51:10.090Z,11.33
2018-09-28T10:53:39.359Z,14.73
2018-09-28T10:56:08.322Z,10.67
2018-09-28T10:58:37.523Z,12.70
2018-09-28T11:01:06.322Z,12.90
2018-09-28T11:03:34.922Z,16.17
2018-09-28T11:06:03.706Z,19.90
2018-09-28T11:08:33.939Z,16.82
2018-09-28T11:11:02.181Z,13.17
2018-09-28T11:13:30.816Z,12.27
2018-09-28T11:16:00.103Z,12.17
2018-09-28T11:18:29.117Z,11.03
2018-09-28T11:20:58.341Z,11.83
2018-09-28T11:23:27.416Z,12.10
2018-09-28T11:25:57.945Z,14.13
2018-09-28T11:28:27.238Z,13.67
2018-09-28T11:30:56.070Z,11.50
2018-09-28T11:33:25.129Z,9.47
2018-09-28T11:35:54.443Z,10.90
2018-09-28T11:38:23.788Z,12.40
2018-09-28T11:40:52.702Z,10.93
2018-09-28T11:43:23.530Z,9.20
2018-09-28T11:45:53.310Z,8.67
2018-09-28T11:48:22.154Z,9.17
2018-09-28T11:50:51.107Z,8.80
2018-09-28T11:53:19.994Z,8.53
2018-09-28T11:55:49.232Z,8.23
2018-09-28T11:58:18.222Z,10.80
2018-09-28T12:00:46.959Z,9.60
2018-09-28T12:03:15.766Z,8.30
2018-09-28T12:05:44.411Z,9.70
2018-09-28T12:08:13.209Z,11.60
2018-09-28T12:10:41.673Z,14.63
2018-09-28T12:13:10.448Z,9.60
2018-09-28T12:15:40.547Z,8.50
2018-09-28T12:18:09.866Z,12.65
2018-09-28T12:20:38.883Z,8.67
2018-09-28T12:23:08.368Z,10.67
2018-09-28T12:25:37.426Z,11.10
2018-09-28T12:28:08.337Z,10.00
2018-09-28T12:30:37.227Z,11.43
2018-09-28T12:33:06.536Z,14.20
2018-09-28T12:35:36.693Z,14.93
2018-09-28T12:38:05.549Z,9.80
2018-09-28T12:40:34.607Z,13.27
2018-09-28T12:43:03.761Z,17.63
2018-09-28T12:45:32.849Z,11.73
2018-09-28T12:48:01.965Z,12.60
2018-09-28T12:50:31.009Z,10.57
2018-09-28T12:52:59.900Z,13.63
2018-09-28T12:55:28.835Z,13.53
2018-09-28T12:57:57.782Z,10.77
2018-09-28T13:00:26.575Z,13.10
2018-09-28T13:02:55.260Z,15.13
2018-09-28T13:05:24.045Z,12.80
2018-09-28T13:07:52.616Z,20.60
2018-09-28T13:10:21.739Z,11.97
2018-09-28T13:12:50.755Z,12.20
2018-09-28T13:15:19.730Z,13.63
2018-09-28T13:17:48.746Z,11.30
2018-09-28T13:20:17.724Z,9.87
2018-09-28T13:22:46.898Z,13.40
2018-09-28T13:25:15.792Z,11.57
2018-09-28T13:27:44.861Z,13.30
2018-09-28T13:30:13.568Z,13.00
2018-09-28T13:32:42.694Z,15.03
2018-09-28T13:35:11.759Z,16.10
2018-09-28T13:37:40.614Z,18.27
2018-09-28T13:40:09.767Z,13.80
2018-09-28T13:42:39.089Z,12.30
2018-09-28T13:45:09.345Z,12.30
2018-09-28T13:47:39.794Z,17.57
2018-09-28T13:50:09.314Z,10.03
2018-09-28T13:52:39.110Z,11.27
2018-09-28T13:55:08.164Z,13.50
2018-09-28T13:57:37.212Z,13.05
2018-09-28T14:00:06.396Z,12.20
2018-09-28T14:02:35.103Z,13.70
2018-09-28T14:05:03.762Z,12.20
2018-09-28T14:07:32.268Z,12.70
2018-09-28T14:10:00.970Z,13.70
2018-09-28T14:12:31.991Z,11.50
2018-09-28T14:15:00.777Z,15.10
2018-09-28T14:17:30.145Z,14.20
2018-09-28T14:19:59.089Z,13.60
2018-09-28T14:22:29.256Z,17.30
2018-09-28T14:24:58.205Z,11.87
2018-09-28T14:27:27.469Z,10.47
2018-09-28T14:29:57.225Z,11.00
2018-09-28T14:32:26.220Z,14.60
2018-09-28T14:34:55.561Z,15.17
2018-09-28T14:37:24.773Z,15.90
2018-09-28T14:39:54.036Z,15.00
2018-09-28T14:42:23.944Z,20.40
2018-09-28T14:44:53.154Z,12.87
2018-09-28T14:47:23.017Z,21.53
2018-09-28T14:49:52.624Z,17.82
2018-09-28T14:52:21.306Z,14.60
2018-09-28T14:54:50.172Z,13.70
2018-09-28T14:57:18.645Z,15.23
2018-09-28T14:59:47.165Z,18.13
2018-09-28T15:04:23.689Z,16.23
2018-09-28T15:06:52.418Z,18.33
2018-09-28T15:09:21.245Z,16.30
2018-09-28T15:11:49.996Z,15.30
2018-09-28T15:14:18.911Z,14.50
2018-09-28T15:16:47.907Z,17.67
2018-09-28T15:19:16.904Z,14.10
2018-09-28T15:21:45.723Z,15.00
2018-09-28T15:24:14.568Z,15.20
2018-09-28T15:26:43.355Z,15.35
2018-09-28T15:29:12.515Z,13.13
2018-09-28T15:31:41.594Z,15.37
2018-09-28T15:34:10.246Z,13.10
2018-09-28T15:36:40.864Z,22.37
2018-09-28T15:39:12.107Z,19.23
2018-09-28T15:41:40.896Z,16.83
2018-09-28T15:44:10.300Z,18.77
2018-09-28T15:46:39.600Z,15.33
2018-09-28T15:49:08.703Z,17.03
2018-09-28T15:51:37.386Z,16.03
2018-09-28T15:54:05.972Z,17.70
2018-09-28T15:56:34.565Z,17.20
2018-09-28T15:59:03.214Z,20.90
2018-09-28T16:01:31.708Z,19.77
2018-09-28T16:04:00.726Z,16.33
2018-09-28T16:06:29.501Z,19.90
2018-09-28T16:08:58.393Z,20.80
2018-09-28T16:11:27.529Z,20.95
2018-09-28T16:13:56.510Z,19.07
2018-09-28T16:16:25.461Z,13.87
2018-09-28T16:18:55.028Z,17.83
2018-09-28T16:21:24.490Z,20.57
2018-09-28T16:23:54.192Z,23.40
2018-09-28T16:26:23.132Z,20.03
2018-09-28T16:28:51.964Z,18.40
2018-09-28T16:31:21.325Z,19.13
2018-09-28T16:33:50.600Z,18.47
2018-09-28T16:36:19.846Z,19.73
2018-09-28T16:38:49.113Z,21.93
2018-09-28T16:41:17.968Z,18.50
2018-09-28T16:43:46.880Z,24.07
2018-09-28T16:46:16.909Z,29.77
2018-09-28T16:48:45.554Z,24.93
2018-09-28T16:51:14.488Z,21.87
2018-09-28T16:53:49.350Z,21.40
2018-09-28T16:56:17.909Z,25.50
2018-09-28T16:58:46.600Z,25.77
2018-09-28T17:01:15.442Z,26.10
2018-09-28T17:06:19.052Z,23.67
2018-09-28T17:08:48.211Z,26.50
2018-09-28T17:11:17.033Z,26.57
2018-09-28T17:13:46.125Z,27.07
2018-09-28T17:16:16.998Z,21.42
2018-09-28T17:18:48.406Z,26.20
2018-09-28T17:21:17.883Z,24.70
2018-09-28T17:23:49.065Z,32.17
2018-09-28T17:26:17.910Z,30.23
2018-09-28T17:28:46.854Z,30.55
2018-09-28T17:31:15.954Z,32.47
2018-09-28T17:33:45.020Z,30.27
2018-09-28T17:36:14.314Z,26.97
2018-09-28T17:38:43.122Z,27.83
2018-09-28T17:41:12.230Z,28.57
2018-09-28T17:43:41.574Z,24.90
2018-09-28T17:46:10.198Z,23.80
2018-09-28T17:48:39.333Z,23.70
2018-09-28T17:51:08.351Z,22.83
2018-09-28T17:53:36.974Z,23.07
2018-09-28T17:56:05.487Z,23.33
2018-09-28T17:58:34.593Z,24.60
2018-09-28T18:03:56.554Z,19.40
2018-09-28T18:06:25.568Z,18.73
2018-09-28T18:08:54.560Z,20.03
2018-09-28T18:11:23.512Z,19.77
2018-09-28T18:13:52.638Z,24.73
2018-09-28T18:16:21.127Z,21.60
2018-09-28T18:18:49.895Z,19.33
2018-09-28T18:21:18.767Z,20.30
2018-09-28T18:23:47.421Z,20.67
2018-09-28T18:26:16.270Z,20.80
2018-09-28T18:28:45.258Z,18.80
2018-09-28T18:31:14.019Z,19.10
2018-09-28T18:33:42.933Z,17.45
2018-09-28T18:36:11.748Z,17.47
2018-09-28T18:38:40.824Z,19.10
2018-09-28T18:41:10.069Z,18.10
2018-09-28T18:43:38.774Z,18.90
2018-09-28T18:46:07.812Z,18.30
2018-09-28T18:48:36.856Z,17.50
2018-09-28T18:51:05.354Z,15.30
2018-09-28T18:53:33.932Z,14.87
2018-09-28T18:56:03.199Z,15.60
2018-09-28T18:58:31.949Z,14.30
2018-09-28T19:01:01.019Z,14.33
2018-09-28T19:03:29.977Z,14.00
2018-09-28T19:05:58.701Z,16.43
2018-09-28T19:08:27.372Z,13.60
2018-09-28T19:10:56.313Z,12.97
2018-09-28T19:13:25.176Z,15.13
2018-09-28T19:15:54.574Z,13.20
2018-09-28T19:18:23.601Z,15.00
2018-09-28T19:20:52.848Z,14.23
2018-09-28T19:23:21.335Z,20.27
2018-09-28T19:25:50.094Z,18.27
2018-09-28T19:28:18.648Z,17.70
2018-09-28T19:30:47.655Z,14.73
2018-09-28T19:33:16.210Z,15.37
2018-09-28T19:35:44.837Z,15.37
2018-09-28T19:38:13.405Z,18.73
2018-09-28T19:40:42.114Z,15.30
2018-09-28T19:43:10.628Z,18.13
2018-09-28T19:45:39.573Z,16.93
2018-09-28T19:48:08.427Z,16.23
2018-09-28T19:50:36.974Z,14.87
2018-09-28T19:53:05.573Z,18.23
2018-09-28T19:55:34.443Z,18.17
2018-09-28T19:58:03.398Z,18.83
2018-09-28T20:00:32.173Z,17.50
2018-09-28T20:03:00.899Z,21.73
2018-09-28T20:05:29.832Z,18.37
2018-09-28T20:07:58.717Z,17.27
2018-09-28T20:10:27.321Z,16.57
2018-09-28T20:12:55.915Z,19.63
2018-09-28T20:15:26.114Z,16.87
2018-09-28T20:17:55.072Z,16.03
2018-09-28T20:20:23.861Z,17.43
2018-09-28T20:22:52.779Z,19.00
2018-09-28T20:25:21.246Z,15.37
2018-09-28T20:27:49.804Z,20.97
2018-09-28T20:30:18.610Z,19.70
2018-09-28T20:32:47.246Z,16.20
2018-09-28T20:35:16.222Z,15.87
2018-09-28T20:37:45.151Z,15.75
2018-09-28T20:40:13.593Z,16.07
2018-09-28T20:42:41.947Z,17.20
2018-09-28T20:45:10.542Z,17.20
2018-09-28T20:47:39.630Z,16.00
2018-09-28T20:50:08.169Z,17.70
2018-09-28T20:52:36.850Z,14.70
2018-09-28T20:55:05.407Z,15.73
2018-09-28T20:57:33.948Z,17.90
2018-09-28T21:00:02.728Z,18.57
2018-09-28T21:02:31.287Z,18.60
2018-09-28T21:04:59.809Z,17.63
2018-09-28T21:07:28.370Z,20.10
2018-09-28T21:09:56.974Z,19.40
2018-09-28T21:12:25.596Z,16.85
2018-09-28T21:14:54.355Z,20.37
2018-09-28T21:17:23.219Z,18.30
2018-09-28T21:19:52.002Z,17.83
2018-09-28T21:22:20.544Z,18.37
2018-09-28T21:24:49.324Z,20.23
2018-09-28T21:27:17.863Z,19.97
2018-09-28T21:29:46.807Z,20.00
2018-09-28T21:32:15.458Z,21.13
2018-09-28T21:34:43.984Z,19.03
2018-09-28T21:37:12.759Z,19.93
2018-09-28T21:39:41.463Z,18.20
2018-09-28T21:42:09.993Z,20.63
2018-09-28T21:44:38.658Z,19.93
2018-09-28T21:47:07.396Z,20.73
2018-09-28T21:49:35.895Z,17.00
2018-09-28T21:52:04.603Z,19.43
2018-09-28T21:54:33.135Z,16.70
2018-09-28T22:02:04.777Z,14.93
2018-09-28T22:04:33.565Z,15.20
2018-09-28T22:07:02.095Z,16.73
2018-09-28T22:09:30.839Z,13.07
2018-09-28T22:11:59.682Z,16.50
2018-09-28T22:14:28.225Z,19.17
2018-09-28T22:16:56.912Z,12.80
2018-09-28T22:19:25.444Z,12.30
2018-09-28T22:21:54.439Z,13.83
2018-09-28T22:24:22.885Z,13.07
2018-09-28T22:26:51.743Z,14.73
2018-09-28T22:29:20.381Z,13.30
2018-09-28T22:31:48.962Z,16.93
2018-09-28T22:34:17.618Z,14.67
2018-09-28T22:36:46.313Z,13.87
2018-09-28T22:39:15.123Z,13.47
2018-09-28T22:41:43.512Z,10.80
2018-09-28T22:44:12.191Z,17.60
2018-09-28T22:46:40.881Z,16.37
2018-09-28T22:49:09.637Z,15.80
2018-09-28T22:51:38.662Z,14.70
2018-09-28T22:54:07.120Z,14.67
2018-09-28T22:56:35.739Z,13.80
2018-09-28T22:59:04.780Z,12.17
2018-09-28T23:01:33.620Z,19.60
2018-09-28T23:04:02.317Z,14.63
2018-09-28T23:06:30.843Z,16.57
2018-09-28T23:08:59.570Z,11.77
2018-09-28T23:11:28.268Z,13.70
2018-09-28T23:13:56.819Z,11.50
2018-09-28T23:16:25.447Z,14.80
2018-09-28T23:18:54.155Z,16.63
2018-09-28T23:21:22.710Z,15.87
2018-09-28T23:23:51.134Z,11.63
2018-09-28T23:26:19.666Z,13.80
2018-09-28T23:28:48.146Z,10.18
2018-09-28T23:31:16.517Z,10.63
2018-09-28T23:33:45.062Z,13.00
2018-09-28T23:36:13.778Z,13.87
2018-09-28T23:38:42.331Z,12.33
2018-09-28T23:41:10.849Z,13.73
2018-09-28T23:43:39.851Z,10.80
2018-09-28T23:46:09.096Z,15.40
2018-09-28T23:48:38.116Z,12.77
2018-09-28T23:51:07.089Z,11.90
2018-09-28T23:53:35.775Z,10.83
2018-09-28T23:56:04.477Z,12.90
2018-09-28T23:58:33.121Z,10.77
